Terminal Aerodrome Forecast
Issued by NWS

Home | Current Version | Previous Version | Text Only | Print | Product List | Glossary On
Versions: 1 2 3 4 5 6 7 8 9 10 11 12 13 14 15 16 17 18
000
FTUS43 KMQT 232324
TAFSAW
TAF
KSAW 232324Z 2400/2424 00000KT P6SM OVC150
     FM240500 36009KT P6SM VCSH OVC040
     FM240600 36012G21KT P6SM -SHRA OVC025
     FM240800 36017G29KT 4SM -SHRA OVC015
     FM241100 35025G40KT 2SM +SHRA OVC008
     FM241900 35026G41KT 1 1/2SM -SHRA OVC010
     FM242300 34022G35KT 3SM -SHRA OVC015=

USA.gov is the U.S. government's official web portal to all federal, state and local government web resources and services.